Time,TemperatureF,DewpointF,PressureIn,WindDirection,WindDirectionDegrees,WindSpeedMPH,WindSpeedGustMPH,Humidity,HourlyPrecipIn,Conditions,Clouds,dailyrainin,SoftwareType,DateUTC
2013-07-08 00:02:00,63.0,55.0,29.93,South,171,0.0,2.0,74,-99.99,,,-99.99,,2013-07-08 07:02:00,
2013-07-08 00:11:00,63.0,55.0,29.93,South,171,0.0,2.0,74,-99.99,,,-99.99,,2013-07-08 07:11:00,
2013-07-08 00:22:00,62.0,54.0,29.94,SW,236,1.0,3.0,76,-99.99,,,-99.99,,2013-07-08 07:22:00,
2013-07-08 00:34:00,62.0,55.0,29.94,SSE,155,0.0,3.0,77,-99.99,,,-99.99,,2013-07-08 07:34:00,
2013-07-08 00:44:00,62.0,55.0,29.94,SW,218,0.0,1.0,77,-99.99,,,-99.99,,2013-07-08 07:44:00,
2013-07-08 00:53:00,62.0,55.0,29.94,South,185,1.0,3.0,77,-99.99,,,-99.99,,2013-07-08 07:53:00,
2013-07-08 01:02:00,61.0,54.0,29.94,SSW,202,1.0,4.0,78,-99.99,,,-99.99,,2013-07-08 08:02:00,
2013-07-08 01:11:00,61.0,54.0,29.94,SSW,199,0.0,1.0,78,-99.99,,,-99.99,,2013-07-08 08:11:00,
2013-07-08 01:22:00,61.0,54.0,29.94,SSW,197,0.0,4.0,79,-99.99,,,-99.99,,2013-07-08 08:22:00,
2013-07-08 01:33:00,61.0,54.0,29.94,South,190,0.0,4.0,79,-99.99,,,-99.99,,2013-07-08 08:33:00,
2013-07-08 01:42:00,60.0,54.0,29.94,South,180,1.0,3.0,81,-99.99,,,-99.99,,2013-07-08 08:42:00,
2013-07-08 01:52:00,60.0,54.0,29.94,South,176,0.0,6.0,81,-99.99,,,-99.99,,2013-07-08 08:52:00,
2013-07-08 02:01:00,60.0,54.0,29.94,South,175,2.0,7.0,82,-99.99,,,-99.99,,2013-07-08 09:01:00,
2013-07-08 02:11:00,60.0,54.0,29.96,SSE,154,2.0,6.0,82,-99.99,,,-99.99,,2013-07-08 09:11:00,
2013-07-08 02:21:00,59.0,54.0,29.96,South,176,1.0,10.0,82,-99.99,,,-99.99,,2013-07-08 09:21:00,
2013-07-08 02:34:00,59.0,54.0,29.96,South,191,0.0,4.0,82,-99.99,,,-99.99,,2013-07-08 09:34:00,
2013-07-08 02:43:00,59.0,54.0,29.96,SSW,213,0.0,6.0,83,-99.99,,,-99.99,,2013-07-08 09:43:00,
2013-07-08 02:52:00,59.0,54.0,29.96,SSE,164,0.0,5.0,83,-99.99,,,-99.99,,2013-07-08 09:52:00,
2013-07-08 03:01:00,58.0,53.0,29.97,South,176,1.0,9.0,84,-99.99,,,-99.99,,2013-07-08 10:01:00,
2013-07-08 03:11:00,58.0,53.0,29.96,South,172,1.0,7.0,84,-99.99,,,-99.99,,2013-07-08 10:11:00,
2013-07-08 03:22:00,58.0,53.0,29.96,South,173,0.0,4.0,84,-99.99,,,-99.99,,2013-07-08 10:22:00,
2013-07-08 03:34:00,58.0,53.0,29.98,SSE,159,2.0,5.0,84,-99.99,,,-99.99,,2013-07-08 10:34:00,
2013-07-08 03:53:00,57.0,52.0,29.98,SSE,166,0.0,4.0,84,-99.99,,,-99.99,,2013-07-08 10:53:00,
2013-07-08 04:01:00,57.0,52.0,29.98,South,173,0.0,3.0,84,-99.99,,,-99.99,,2013-07-08 11:01:00,
2013-07-08 04:11:00,57.0,52.0,29.98,South,173,0.0,3.0,84,-99.99,,,-99.99,,2013-07-08 11:11:00,
2013-07-08 04:22:00,57.0,52.0,29.99,SE,143,1.0,3.0,84,-99.99,,,-99.99,,2013-07-08 11:22:00,
2013-07-08 04:33:00,57.0,52.0,29.99,SSW,211,0.0,3.0,84,-99.99,,,-99.99,,2013-07-08 11:33:00,
2013-07-08 04:43:00,57.0,52.0,30.00,South,191,2.0,6.0,84,-99.99,,,-99.99,,2013-07-08 11:43:00,
2013-07-08 04:52:00,57.0,52.0,30.00,SSE,163,1.0,5.0,84,-99.99,,,-99.99,,2013-07-08 11:52:00,
2013-07-08 05:01:00,57.0,53.0,30.00,South,173,2.0,4.0,85,-99.99,,,-99.99,,2013-07-08 12:01:00,
2013-07-08 05:11:00,57.0,53.0,30.00,South,178,0.0,6.0,85,-99.99,,,-99.99,,2013-07-08 12:11:00,
2013-07-08 05:22:00,56.0,52.0,30.01,WSW,241,0.0,5.0,85,-99.99,,,-99.99,,2013-07-08 12:22:00,
2013-07-08 05:33:00,56.0,52.0,30.01,WSW,251,1.0,7.0,86,-99.99,,,-99.99,,2013-07-08 12:33:00,
2013-07-08 05:43:00,56.0,52.0,30.01,SW,214,0.0,3.0,87,-99.99,,,-99.99,,2013-07-08 12:43:00,
2013-07-08 05:53:00,56.0,52.0,30.01,SSW,213,0.0,2.0,87,-99.99,,,-99.99,,2013-07-08 12:53:00,
2013-07-08 06:01:00,56.0,52.0,30.01,SW,214,0.0,3.0,87,-99.99,,,-99.99,,2013-07-08 13:01:00,
2013-07-08 06:11:00,56.0,52.0,30.01,SW,215,0.0,3.0,88,-99.99,,,-99.99,,2013-07-08 13:11:00,
2013-07-08 06:22:00,56.0,52.0,30.01,SSE,150,0.0,3.0,87,-99.99,,,-99.99,,2013-07-08 13:22:00,
2013-07-08 06:33:00,56.0,52.0,30.02,South,179,1.0,2.0,87,-99.99,,,-99.99,,2013-07-08 13:33:00,
2013-07-08 06:42:00,56.0,52.0,30.02,South,181,1.0,5.0,86,-99.99,,,-99.99,,2013-07-08 13:42:00,
2013-07-08 06:53:00,56.0,52.0,30.02,South,176,1.0,6.0,85,-99.99,,,-99.99,,2013-07-08 13:53:00,
2013-07-08 07:01:00,57.0,53.0,30.02,SW,230,0.0,4.0,85,-99.99,,,-99.99,,2013-07-08 14:01:00,
2013-07-08 07:12:00,57.0,52.0,30.03,SE,131,1.0,6.0,84,-99.99,,,-99.99,,2013-07-08 14:12:00,
2013-07-08 07:22:00,57.0,53.0,30.03,SSE,162,0.0,7.0,85,-99.99,,,-99.99,,2013-07-08 14:22:00,
2013-07-08 07:33:00,57.0,52.0,30.03,South,171,0.0,7.0,84,-99.99,,,-99.99,,2013-07-08 14:33:00,
2013-07-08 07:43:00,57.0,52.0,30.04,SSE,163,0.0,4.0,84,-99.99,,,-99.99,,2013-07-08 14:43:00,
2013-07-08 07:53:00,58.0,53.0,30.04,SW,225,2.0,5.0,84,-99.99,,,-99.99,,2013-07-08 14:53:00,
2013-07-08 08:01:00,58.0,53.0,30.04,South,188,0.0,3.0,83,-99.99,,,-99.99,,2013-07-08 15:01:00,
2013-07-08 08:11:00,58.0,53.0,30.05,SSE,163,2.0,5.0,82,-99.99,,,-99.99,,2013-07-08 15:11:00,
2013-07-08 08:33:00,58.0,52.0,30.06,South,170,1.0,4.0,81,-99.99,,,-99.99,,2013-07-08 15:33:00,
2013-07-08 08:43:00,58.0,52.0,30.06,SSW,206,0.0,6.0,81,-99.99,,,-99.99,,2013-07-08 15:43:00,
2013-07-08 08:53:00,59.0,53.0,30.06,SSE,167,1.0,3.0,80,-99.99,,,-99.99,,2013-07-08 15:53:00,
2013-07-08 09:01:00,59.0,52.0,30.06,SE,144,3.0,5.0,79,-99.99,,,-99.99,,2013-07-08 16:01:00,
2013-07-08 09:11:00,59.0,52.0,30.06,SE,144,3.0,5.0,79,-99.99,,,-99.99,,2013-07-08 16:11:00,
2013-07-08 09:22:00,60.0,52.0,30.06,SSE,149,7.0,11.0,76,-99.99,,,-99.99,,2013-07-08 16:22:00,
2013-07-08 09:33:00,61.0,53.0,30.06,West,260,3.0,6.0,75,-99.99,,,-99.99,,2013-07-08 16:33:00,
2013-07-08 09:43:00,62.0,54.0,30.07,SE,138,1.0,5.0,74,-99.99,,,-99.99,,2013-07-08 16:43:00,
2013-07-08 09:52:00,62.0,53.0,30.07,SSE,163,1.0,4.0,72,-99.99,,,-99.99,,2013-07-08 16:52:00,
2013-07-08 10:12:00,62.0,52.0,30.07,SSE,150,4.0,9.0,71,-99.99,,,-99.99,,2013-07-08 17:12:00,
2013-07-08 10:22:00,62.0,52.0,30.07,SSE,156,6.0,11.0,71,-99.99,,,-99.99,,2013-07-08 17:22:00,
2013-07-08 10:33:00,63.0,53.0,30.07,SSE,150,4.0,9.0,71,-99.99,,,-99.99,,2013-07-08 17:33:00,
2013-07-08 10:43:00,64.0,54.0,30.07,SW,217,1.0,7.0,69,-99.99,,,-99.99,,2013-07-08 17:43:00,
2013-07-08 11:01:00,66.0,54.0,30.08,SSW,205,1.0,5.0,65,-99.99,,,-99.99,,2013-07-08 18:01:00,
2013-07-08 11:13:00,67.0,54.0,30.08,SSE,163,2.0,7.0,64,-99.99,,,-99.99,,2013-07-08 18:13:00,
2013-07-08 11:23:00,67.0,54.0,30.08,ESE,117,1.0,9.0,64,-99.99,,,-99.99,,2013-07-08 18:23:00,
2013-07-08 11:34:00,67.0,54.0,30.08,SSW,194,1.0,9.0,64,-99.99,,,-99.99,,2013-07-08 18:34:00,
2013-07-08 11:44:00,67.0,54.0,30.08,East,87,2.0,8.0,64,-99.99,,,-99.99,,2013-07-08 18:44:00,
2013-07-08 12:02:00,69.0,55.0,30.08,South,172,1.0,6.0,61,-99.99,,,-99.99,,2013-07-08 19:02:00,
2013-07-08 12:32:00,70.0,55.0,30.09,WSW,255,1.0,8.0,59,-99.99,,,-99.99,,2013-07-08 19:32:00,
2013-07-08 12:42:00,70.0,55.0,30.09,West,262,2.0,9.0,60,-99.99,,,-99.99,,2013-07-08 19:42:00,
2013-07-08 12:53:00,71.0,55.0,30.09,WSW,241,3.0,6.0,57,-99.99,,,-99.99,,2013-07-08 19:53:00,
2013-07-08 13:03:00,72.0,56.0,30.09,SSW,210,1.0,7.0,57,-99.99,,,-99.99,,2013-07-08 20:03:00,
2013-07-08 13:13:00,72.0,56.0,30.09,WSW,256,2.0,10.0,57,-99.99,,,-99.99,,2013-07-08 20:13:00,
2013-07-08 13:23:00,72.0,55.0,30.09,SSE,162,1.0,8.0,56,-99.99,,,-99.99,,2013-07-08 20:23:00,
2013-07-08 13:34:00,72.0,56.0,30.08,South,169,2.0,6.0,57,-99.99,,,-99.99,,2013-07-08 20:34:00,
2013-07-08 13:53:00,72.0,55.0,30.08,SSW,194,2.0,5.0,56,-99.99,,,-99.99,,2013-07-08 20:53:00,
2013-07-08 14:12:00,74.0,56.0,30.07,SSW,209,2.0,4.0,54,-99.99,,,-99.99,,2013-07-08 21:12:00,
2013-07-08 14:22:00,74.0,56.0,30.07,NW,318,3.0,6.0,54,-99.99,,,-99.99,,2013-07-08 21:22:00,
2013-07-08 14:34:00,73.0,56.0,30.07,SE,125,2.0,7.0,56,-99.99,,,-99.99,,2013-07-08 21:34:00,
2013-07-08 14:55:00,76.0,57.0,30.07,NE,36,1.0,5.0,51,-99.99,,,-99.99,,2013-07-08 21:55:00,
2013-07-08 15:03:00,76.0,57.0,30.07,NE,55,0.0,5.0,52,-99.99,,,-99.99,,2013-07-08 22:03:00,
2013-07-08 15:12:00,76.0,56.0,30.06,South,186,3.0,5.0,50,-99.99,,,-99.99,,2013-07-08 22:12:00,
2013-07-08 15:22:00,75.0,56.0,30.06,NE,55,0.0,7.0,52,-99.99,,,-99.99,,2013-07-08 22:22:00,
2013-07-08 15:52:00,78.0,57.0,30.06,SW,233,5.0,7.0,48,-99.99,,,-99.99,,2013-07-08 22:52:00,
2013-07-08 16:02:00,79.0,57.0,30.06,NW,309,1.0,6.0,47,-99.99,,,-99.99,,2013-07-08 23:02:00,
2013-07-08 16:12:00,79.0,56.0,30.06,SSW,207,2.0,9.0,46,-99.99,,,-99.99,,2013-07-08 23:12:00,
2013-07-08 16:22:00,79.0,55.0,30.06,WSW,253,1.0,6.0,44,-99.99,,,-99.99,,2013-07-08 23:22:00,
2013-07-08 16:34:00,80.0,55.0,30.05,SW,218,1.0,4.0,43,-99.99,,,-99.99,,2013-07-08 23:34:00,
2013-07-08 16:44:00,80.0,55.0,30.05,NNW,329,2.0,5.0,42,-99.99,,,-99.99,,2013-07-08 23:44:00,
2013-07-08 16:52:00,79.0,55.0,30.05,NNW,337,2.0,4.0,44,-99.99,,,-99.99,,2013-07-08 23:52:00,
2013-07-08 17:11:00,79.0,55.0,30.05,West,281,0.0,5.0,43,-99.99,,,-99.99,,2013-07-09 00:11:00,
2013-07-08 17:43:00,80.0,55.0,30.05,SW,225,2.0,6.0,43,-99.99,,,-99.99,,2013-07-09 00:43:00,
2013-07-08 17:53:00,79.0,55.0,30.05,WSW,250,2.0,9.0,44,-99.99,,,-99.99,,2013-07-09 00:53:00,
2013-07-08 18:03:00,79.0,54.0,30.05,NNW,334,1.0,6.0,42,-99.99,,,-99.99,,2013-07-09 01:03:00,
2013-07-08 18:33:00,78.0,54.0,30.04,ENE,61,0.0,5.0,44,-99.99,,,-99.99,,2013-07-09 01:33:00,
2013-07-08 18:53:00,79.0,53.0,30.04,WSW,257,3.0,10.0,41,-99.99,,,-99.99,,2013-07-09 01:53:00,
2013-07-08 19:34:00,78.0,52.0,30.05,WNW,300,1.0,6.0,41,-99.99,,,-99.99,,2013-07-09 02:34:00,
2013-07-08 19:44:00,78.0,52.0,30.05,WNW,300,1.0,6.0,41,-99.99,,,-99.99,,2013-07-09 02:44:00,
2013-07-08 20:03:00,76.0,52.0,30.05,NW,320,2.0,6.0,43,-99.99,,,-99.99,,2013-07-09 03:03:00,
2013-07-08 20:24:00,74.0,52.0,30.05,NNW,333,1.0,5.0,46,-99.99,,,-99.99,,2013-07-09 03:24:00,
2013-07-08 21:02:00,72.0,53.0,30.05,NNW,344,0.0,3.0,52,-99.99,,,-99.99,,2013-07-09 04:02:00,
2013-07-08 21:11:00,72.0,54.0,30.05,NNW,344,0.0,2.0,53,-99.99,,,-99.99,,2013-07-09 04:11:00,
2013-07-08 21:22:00,71.0,54.0,30.05,WSW,237,0.0,2.0,54,-99.99,,,-99.99,,2013-07-09 04:22:00,
2013-07-08 21:42:00,70.0,54.0,30.06,WSW,239,0.0,1.0,57,-99.99,,,-99.99,,2013-07-09 04:42:00,
2013-07-08 21:53:00,69.0,54.0,30.06,WSW,239,0.0,1.0,59,-99.99,,,-99.99,,2013-07-09 04:53:00,
2013-07-08 22:02:00,68.0,54.0,30.06,WSW,239,0.0,1.0,62,-99.99,,,-99.99,,2013-07-09 05:02:00,
2013-07-08 22:11:00,68.0,55.0,30.06,WSW,239,0.0,0.0,63,-99.99,,,-99.99,,2013-07-09 05:11:00,
2013-07-08 22:22:00,68.0,55.0,30.07,WSW,239,0.0,2.0,64,-99.99,,,-99.99,,2013-07-09 05:22:00,
2013-07-08 22:33:00,67.0,55.0,30.07,WSW,239,0.0,1.0,65,-99.99,,,-99.99,,2013-07-09 05:33:00,
2013-07-08 22:42:00,67.0,55.0,30.07,WSW,239,0.0,1.0,65,-99.99,,,-99.99,,2013-07-09 05:42:00,
2013-07-08 22:52:00,67.0,55.0,30.07,WSW,239,0.0,0.0,66,-99.99,,,-99.99,,2013-07-09 05:52:00,
2013-07-08 23:01:00,66.0,55.0,30.07,WSW,239,0.0,2.0,67,-99.99,,,-99.99,,2013-07-09 06:01:00,
2013-07-08 23:11:00,66.0,55.0,30.07,WSW,239,1.0,2.0,67,-99.99,,,-99.99,,2013-07-09 06:11:00,
2013-07-08 23:22:00,66.0,55.0,30.07,WSW,239,0.0,2.0,67,-99.99,,,-99.99,,2013-07-09 06:22:00,
2013-07-08 23:33:00,66.0,55.0,30.07,WSW,239,0.0,2.0,67,-99.99,,,-99.99,,2013-07-09 06:33:00,
2013-07-08 23:43:00,66.0,55.0,30.08,NNW,343,0.0,3.0,67,-99.99,,,-99.99,,2013-07-09 06:43:00,
2013-07-08 23:53:00,66.0,55.0,30.07,NNW,343,0.0,3.0,68,-99.99,,,-99.99,,2013-07-09 06:53:00,